createdAt,value
2022-08-22T00:02:59.524Z,19.80
2022-08-22T00:05:55.747Z,19.02
2022-08-22T00:08:56.966Z,18.98
2022-08-22T00:11:50.138Z,18.95
2022-08-22T00:14:44.168Z,18.88
2022-08-22T00:17:35.130Z,18.87
2022-08-22T00:20:35.673Z,18.84
2022-08-22T00:23:24.151Z,18.81
2022-08-22T00:26:17.883Z,18.77
2022-08-22T00:29:08.946Z,18.76
2022-08-22T00:32:09.027Z,18.77
2022-08-22T00:35:07.598Z,18.75
2022-08-22T00:38:03.065Z,18.69
2022-08-22T00:41:01.339Z,18.62
2022-08-22T00:43:46.733Z,18.58
2022-08-22T00:46:32.140Z,18.59
2022-08-22T00:49:39.196Z,18.58
2022-08-22T00:52:35.457Z,18.54
2022-08-22T00:55:35.238Z,18.51
2022-08-22T00:58:39.081Z,18.45
2022-08-22T01:01:35.700Z,18.43
2022-08-22T01:04:42.468Z,18.40
2022-08-22T01:07:49.203Z,18.37
2022-08-22T01:10:46.175Z,18.31
2022-08-22T01:13:39.543Z,18.27
2022-08-22T01:17:00.510Z,18.24
2022-08-22T01:20:23.119Z,18.23
2022-08-22T01:23:40.913Z,18.22
2022-08-22T01:26:55.735Z,18.23
2022-08-22T01:29:54.279Z,18.22
2022-08-22T01:33:05.239Z,18.19
2022-08-22T01:36:22.639Z,18.17
2022-08-22T01:39:19.420Z,18.15
2022-08-22T01:42:17.078Z,18.08
2022-08-22T01:45:14.368Z,18.02
2022-08-22T01:48:06.079Z,17.98
2022-08-22T01:51:21.739Z,17.96
2022-08-22T01:54:22.301Z,17.94
2022-08-22T01:57:09.364Z,17.94
2022-08-22T02:00:04.263Z,17.94
2022-08-22T02:03:22.764Z,17.94
2022-08-22T02:06:17.541Z,17.94
2022-08-22T02:09:23.207Z,17.90
2022-08-22T02:12:21.800Z,17.86
2022-08-22T02:15:36.967Z,17.85
2022-08-22T02:18:41.035Z,17.82
2022-08-22T02:21:44.843Z,17.79
2022-08-22T02:24:32.987Z,17.77
2022-08-22T02:27:46.537Z,17.74
2022-08-22T02:31:15.254Z,17.72
2022-08-22T02:34:29.990Z,17.67
2022-08-22T02:37:33.369Z,17.64
2022-08-22T02:40:39.083Z,17.76
2022-08-22T02:43:35.855Z,17.79
2022-08-22T02:46:46.900Z,17.73
2022-08-22T02:49:43.860Z,17.70
2022-08-22T02:52:40.082Z,17.68
2022-08-22T02:55:52.234Z,17.65
2022-08-22T02:58:51.457Z,17.63
2022-08-22T03:01:40.733Z,17.57
2022-08-22T03:04:32.657Z,17.55
2022-08-22T03:07:21.196Z,17.55
2022-08-22T03:10:12.871Z,17.54
2022-08-22T03:13:06.612Z,17.50
2022-08-22T03:16:00.641Z,17.45
2022-08-22T03:18:58.951Z,17.42
2022-08-22T03:22:01.537Z,17.43
2022-08-22T03:24:50.841Z,17.46
2022-08-22T03:27:46.171Z,17.49
2022-08-22T03:30:55.971Z,17.51
2022-08-22T03:33:42.157Z,17.48
2022-08-22T03:36:31.359Z,17.47
2022-08-22T03:39:40.458Z,17.52
2022-08-22T03:43:03.577Z,17.53
2022-08-22T03:45:49.038Z,17.53
2022-08-22T03:49:12.592Z,17.50
2022-08-22T03:52:00.758Z,17.49
2022-08-22T03:55:04.468Z,17.45
2022-08-22T03:58:27.531Z,17.46
2022-08-22T04:01:52.489Z,17.42
2022-08-22T04:05:05.594Z,17.41
2022-08-22T04:08:09.920Z,17.41
2022-08-22T04:11:31.700Z,17.42
2022-08-22T04:14:37.257Z,17.44
2022-08-22T04:17:25.701Z,17.45
2022-08-22T04:20:30.279Z,17.46
2022-08-22T04:24:01.992Z,17.47
2022-08-22T04:26:52.919Z,17.45
2022-08-22T04:29:45.143Z,17.43
2022-08-22T04:32:40.971Z,17.50
2022-08-22T04:35:34.096Z,17.55
2022-08-22T04:38:30.987Z,17.62
2022-08-22T04:41:48.093Z,17.66
2022-08-22T04:44:49.986Z,17.64
2022-08-22T04:48:05.042Z,17.67
2022-08-22T04:50:56.558Z,17.73
2022-08-22T04:53:48.122Z,17.78
2022-08-22T04:56:51.183Z,17.84
2022-08-22T04:59:37.134Z,17.83
2022-08-22T05:02:27.550Z,17.86
2022-08-22T05:05:25.937Z,17.90
2022-08-22T05:08:17.722Z,17.92
2022-08-22T05:11:06.889Z,17.93
2022-08-22T05:14:00.669Z,17.96
2022-08-22T05:16:51.075Z,17.99
2022-08-22T05:19:40.663Z,18.04
2022-08-22T05:22:31.918Z,18.04
2022-08-22T05:25:31.224Z,18.08
2022-08-22T05:28:52.627Z,18.15
2022-08-22T05:31:46.385Z,18.16
2022-08-22T05:34:39.997Z,18.18
2022-08-22T05:37:37.348Z,18.23
2022-08-22T05:40:27.025Z,18.31
2022-08-22T05:43:13.047Z,18.34
2022-08-22T05:45:59.711Z,18.40
2022-08-22T05:48:57.291Z,18.41
2022-08-22T05:51:45.719Z,18.49
2022-08-22T05:54:34.609Z,18.52
2022-08-22T05:57:32.398Z,18.56
2022-08-22T06:00:22.583Z,18.58
2022-08-22T06:03:41.222Z,18.66
2022-08-22T06:06:29.974Z,18.82
2022-08-22T06:09:21.629Z,19.00
2022-08-22T06:12:21.686Z,19.21
2022-08-22T06:15:23.076Z,19.42
2022-08-22T06:18:14.836Z,19.57
2022-08-22T06:21:07.847Z,19.75
2022-08-22T06:24:01.635Z,19.94
2022-08-22T06:26:51.136Z,20.00
2022-08-22T06:29:40.933Z,20.02
2022-08-22T06:32:59.298Z,20.13
2022-08-22T06:36:11.334Z,20.25
2022-08-22T06:39:14.910Z,20.39
2022-08-22T06:42:06.055Z,20.57
2022-08-22T06:44:57.830Z,20.72
2022-08-22T06:47:53.690Z,20.70
2022-08-22T06:50:42.381Z,20.72
2022-08-22T06:53:35.491Z,20.86
2022-08-22T06:56:35.518Z,21.05
2022-08-22T06:59:26.249Z,21.19
2022-08-22T07:02:33.582Z,21.10
2022-08-22T07:05:22.822Z,21.18
2022-08-22T07:08:14.084Z,21.24
2022-08-22T07:11:26.027Z,21.18
2022-08-22T07:14:15.626Z,21.21
2022-08-22T07:17:05.140Z,21.26
2022-08-22T07:20:04.945Z,21.31
2022-08-22T07:22:57.845Z,21.33
2022-08-22T07:25:52.585Z,21.52
2022-08-22T07:28:51.207Z,21.83
2022-08-22T07:31:54.078Z,21.87
2022-08-22T07:35:10.808Z,21.53
2022-08-22T07:38:06.511Z,21.56
2022-08-22T07:41:11.010Z,21.26
2022-08-22T07:44:32.671Z,21.51
2022-08-22T07:47:26.444Z,21.33
2022-08-22T07:50:16.967Z,21.44
2022-08-22T07:53:15.549Z,21.43
2022-08-22T07:56:04.382Z,21.41
2022-08-22T07:58:58.170Z,21.43
2022-08-22T08:01:46.784Z,21.34
2022-08-22T08:04:39.951Z,21.77
2022-08-22T08:07:27.485Z,22.00
2022-08-22T08:10:19.246Z,22.25
2022-08-22T08:13:16.598Z,22.55
2022-08-22T08:16:04.856Z,22.96
2022-08-22T08:18:54.413Z,22.48
2022-08-22T08:21:47.306Z,21.99
2022-08-22T08:24:40.627Z,22.00
2022-08-22T08:27:52.370Z,22.40
2022-08-22T08:30:55.438Z,22.50
2022-08-22T08:33:45.936Z,22.81
2022-08-22T08:36:49.361Z,22.85
2022-08-22T08:39:40.930Z,22.82
2022-08-22T08:43:03.520Z,22.52
2022-08-22T08:46:12.055Z,22.78
2022-08-22T08:49:06.672Z,22.99
2022-08-22T08:52:00.896Z,22.99
2022-08-22T08:55:02.287Z,23.02
2022-08-22T08:58:31.997Z,22.98
2022-08-22T09:01:49.818Z,23.07
2022-08-22T09:05:12.543Z,22.92
2022-08-22T09:08:24.699Z,22.90
2022-08-22T09:11:46.420Z,23.13
2022-08-22T09:14:51.905Z,23.29
2022-08-22T09:17:46.126Z,22.97
2022-08-22T09:20:49.805Z,22.96
2022-08-22T09:24:07.089Z,23.31
2022-08-22T09:27:08.445Z,23.70
2022-08-22T09:30:04.801Z,23.86
2022-08-22T09:33:03.790Z,24.02
2022-08-22T09:35:55.270Z,23.83
2022-08-22T09:38:55.541Z,23.40
2022-08-22T09:41:51.772Z,23.45
2022-08-22T09:44:43.777Z,23.62
2022-08-22T09:47:35.048Z,23.41
2022-08-22T09:51:19.995Z,23.65
2022-08-22T09:54:35.744Z,23.55
2022-08-22T09:58:01.439Z,23.67
2022-08-22T10:00:58.438Z,23.92
2022-08-22T10:03:46.720Z,23.81
2022-08-22T10:06:58.912Z,23.70
2022-08-22T10:09:58.760Z,23.86
2022-08-22T10:13:02.838Z,23.99
2022-08-22T10:16:26.815Z,23.07
2022-08-22T10:19:31.946Z,23.48
2022-08-22T10:22:31.568Z,23.83
2022-08-22T10:25:46.057Z,23.75
2022-08-22T10:29:13.497Z,23.86
2022-08-22T10:32:15.494Z,23.99
2022-08-22T10:35:21.822Z,24.08
2022-08-22T10:38:27.830Z,24.05
2022-08-22T10:41:27.410Z,24.27
2022-08-22T10:44:18.674Z,24.04
2022-08-22T10:47:15.103Z,24.42
2022-08-22T10:50:12.514Z,24.60
2022-08-22T10:53:28.900Z,24.10
2022-08-22T10:56:36.773Z,23.73
2022-08-22T10:59:37.977Z,23.65
2022-08-22T11:02:38.439Z,23.65
2022-08-22T11:05:31.849Z,23.80
2022-08-22T11:08:39.436Z,23.88
2022-08-22T11:11:43.705Z,24.16
2022-08-22T11:14:50.515Z,24.30
2022-08-22T11:18:00.870Z,24.68
2022-08-22T11:21:05.083Z,24.66
2022-08-22T11:24:27.438Z,24.91
2022-08-22T11:27:38.313Z,24.58
2022-08-22T11:30:36.518Z,24.72
2022-08-22T11:33:46.686Z,24.98
2022-08-22T11:37:00.207Z,25.26
2022-08-22T11:40:12.027Z,25.13
2022-08-22T11:43:04.892Z,24.96
2022-08-22T11:45:53.514Z,24.80
2022-08-22T11:48:55.070Z,24.58
2022-08-22T11:51:46.253Z,24.33
2022-08-22T11:54:57.891Z,24.26
2022-08-22T11:57:48.501Z,24.23
2022-08-22T12:01:03.067Z,24.20
2022-08-22T12:04:04.468Z,23.94
2022-08-22T12:06:59.342Z,24.01
2022-08-22T12:09:48.136Z,24.04
2022-08-22T12:12:43.150Z,24.10
2022-08-22T12:15:36.194Z,24.15
2022-08-22T12:18:46.295Z,24.26
2022-08-22T12:22:01.828Z,24.28
2022-08-22T12:25:05.158Z,24.30
2022-08-22T12:28:16.407Z,24.33
2022-08-22T12:31:20.667Z,24.36
2022-08-22T12:34:24.990Z,24.47
2022-08-22T12:37:53.184Z,24.68
2022-08-22T12:41:13.901Z,24.82
2022-08-22T12:44:23.639Z,24.74
2022-08-22T12:47:17.213Z,24.74
2022-08-22T12:50:22.122Z,25.06
2022-08-22T12:53:11.035Z,25.23
2022-08-22T12:56:20.397Z,25.08
2022-08-22T12:59:26.251Z,24.89
2022-08-22T13:02:17.810Z,24.73
2022-08-22T13:05:26.198Z,24.80
2022-08-22T13:08:30.646Z,24.94
2022-08-22T13:11:23.186Z,25.11
2022-08-22T13:14:19.036Z,25.14
2022-08-22T13:17:24.370Z,24.61
2022-08-22T13:20:22.435Z,24.40
2022-08-22T13:23:22.229Z,24.31
2022-08-22T13:26:31.902Z,24.35
2022-08-22T13:29:39.410Z,24.62
2022-08-22T13:32:48.019Z,24.69
2022-08-22T13:35:45.631Z,24.65
2022-08-22T13:39:35.712Z,24.49
2022-08-22T13:42:30.025Z,24.49
2022-08-22T13:45:23.300Z,24.47
2022-08-22T13:48:12.294Z,24.30
2022-08-22T13:51:14.485Z,24.35
2022-08-22T13:54:21.334Z,24.21
2022-08-22T13:57:16.558Z,24.16
2022-08-22T14:00:56.536Z,23.98
2022-08-22T14:03:49.776Z,23.92
2022-08-22T14:06:47.361Z,24.02
2022-08-22T14:09:45.355Z,24.00
2022-08-22T14:12:50.027Z,24.01
2022-08-22T14:15:44.806Z,24.13
2022-08-22T14:18:36.536Z,24.18
2022-08-22T14:21:40.054Z,24.13
2022-08-22T14:24:56.928Z,24.14
2022-08-22T14:27:48.335Z,23.95
2022-08-22T14:30:50.991Z,23.94
2022-08-22T14:33:51.444Z,24.00
2022-08-22T14:37:00.273Z,24.10
2022-08-22T14:39:52.561Z,24.01
2022-08-22T14:42:50.510Z,23.97
2022-08-22T14:45:40.176Z,24.01
2022-08-22T14:48:34.609Z,24.04
2022-08-22T14:51:25.465Z,24.14
2022-08-22T14:54:21.389Z,24.15
2022-08-22T14:57:11.941Z,24.17
2022-08-22T15:00:13.654Z,24.10
2022-08-22T15:03:30.032Z,24.20
2022-08-22T15:06:35.260Z,24.28
2022-08-22T15:09:40.503Z,24.18
2022-08-22T15:12:32.915Z,24.16
2022-08-22T15:15:31.047Z,24.15
2022-08-22T15:18:51.988Z,24.21
2022-08-22T15:21:41.491Z,24.13
2022-08-22T15:24:28.496Z,24.08
2022-08-22T15:27:19.177Z,24.00
2022-08-22T15:30:18.856Z,23.87
2022-08-22T15:33:11.738Z,23.98
2022-08-22T15:36:27.872Z,24.07
2022-08-22T15:39:28.728Z,24.00
2022-08-22T15:42:26.043Z,24.08
2022-08-22T15:45:39.730Z,24.22
2022-08-22T15:48:31.142Z,24.32
2022-08-22T15:51:34.135Z,24.15
2022-08-22T15:54:25.245Z,23.94
2022-08-22T15:57:14.616Z,23.94
2022-08-22T16:00:24.272Z,23.96
2022-08-22T16:03:13.636Z,23.83
2022-08-22T16:06:04.589Z,23.77
2022-08-22T16:08:55.299Z,23.57
2022-08-22T16:11:43.387Z,23.50
2022-08-22T16:14:37.659Z,23.44
2022-08-22T16:17:25.828Z,23.42
2022-08-22T16:20:19.575Z,23.41
2022-08-22T16:23:07.617Z,23.38
2022-08-22T16:25:53.370Z,23.46
2022-08-22T16:29:14.974Z,23.58
2022-08-22T16:32:11.021Z,23.45
2022-08-22T16:34:56.470Z,23.47
2022-08-22T16:37:49.388Z,23.45
2022-08-22T16:40:47.290Z,23.37
2022-08-22T16:43:32.958Z,23.30
2022-08-22T16:46:33.205Z,23.18
2022-08-22T16:49:32.277Z,23.04
2022-08-22T16:52:20.869Z,22.92
2022-08-22T16:55:29.896Z,22.81
2022-08-22T16:58:44.952Z,22.76
2022-08-22T17:01:50.792Z,22.71
2022-08-22T17:05:17.137Z,22.64
2022-08-22T17:08:21.439Z,22.62
2022-08-22T17:11:48.421Z,22.59
2022-08-22T17:14:52.594Z,22.54
2022-08-22T17:18:12.235Z,22.48
2022-08-22T17:21:01.362Z,22.48
2022-08-22T17:24:05.981Z,22.48
2022-08-22T17:27:08.206Z,22.44
2022-08-22T17:30:12.885Z,22.41
2022-08-22T17:33:17.245Z,22.38
2022-08-22T17:36:27.174Z,22.40
2022-08-22T17:39:25.009Z,22.39
2022-08-22T17:42:44.805Z,22.27
2022-08-22T17:45:40.991Z,22.24
2022-08-22T17:48:41.916Z,22.21
2022-08-22T17:51:37.003Z,22.17
2022-08-22T17:54:24.610Z,22.09
2022-08-22T17:57:33.566Z,22.00
2022-08-22T18:00:33.492Z,21.97
2022-08-22T18:03:23.176Z,21.89
2022-08-22T18:06:17.330Z,21.82
2022-08-22T18:09:13.789Z,21.81
2022-08-22T18:12:08.047Z,21.79
2022-08-22T18:15:07.909Z,21.71
2022-08-22T18:18:02.006Z,21.64
2022-08-22T18:21:10.328Z,21.56
2022-08-22T18:24:15.222Z,21.53
2022-08-22T18:27:34.913Z,21.50
2022-08-22T18:30:25.352Z,21.42
2022-08-22T18:33:25.602Z,21.36
2022-08-22T18:36:19.377Z,21.30
2022-08-22T18:39:21.244Z,21.25
2022-08-22T18:42:34.265Z,21.22
2022-08-22T18:45:45.627Z,21.19
2022-08-22T18:48:34.401Z,21.16
2022-08-22T18:51:26.459Z,21.13
2022-08-22T18:54:12.246Z,21.10
2022-08-22T18:57:22.897Z,21.08
2022-08-22T19:00:17.090Z,21.05
2022-08-22T19:03:41.854Z,21.01
2022-08-22T19:06:37.912Z,20.98
2022-08-22T19:09:47.697Z,20.96
2022-08-22T19:12:47.818Z,20.92
2022-08-22T19:15:48.522Z,20.89
2022-08-22T19:19:01.426Z,20.87
2022-08-22T19:22:24.526Z,20.81
2022-08-22T19:25:11.659Z,20.82
2022-08-22T19:27:57.216Z,20.80
2022-08-22T19:30:55.227Z,20.77
2022-08-22T19:33:48.773Z,20.74
2022-08-22T19:36:34.616Z,20.71
2022-08-22T19:39:42.639Z,20.69
2022-08-22T19:42:33.121Z,20.67
2022-08-22T19:45:25.839Z,20.66
2022-08-22T19:48:15.437Z,20.65
2022-08-22T19:51:24.128Z,20.66
2022-08-22T19:54:23.894Z,20.68
2022-08-22T19:57:24.427Z,20.69
2022-08-22T20:00:20.000Z,20.68
2022-08-22T20:03:49.794Z,20.68
2022-08-22T20:06:56.398Z,20.65
2022-08-22T20:10:25.370Z,20.64
2022-08-22T20:13:22.785Z,20.61
2022-08-22T20:16:24.395Z,20.54
2022-08-22T20:20:30.472Z,20.57
2022-08-22T20:23:37.268Z,20.57
2022-08-22T20:26:43.557Z,20.55
2022-08-22T20:29:53.187Z,20.52
2022-08-22T20:33:05.077Z,20.47
2022-08-22T20:36:28.409Z,20.43
2022-08-22T20:39:48.033Z,20.46
2022-08-22T20:43:10.570Z,20.43
2022-08-22T20:46:43.528Z,20.47
2022-08-22T20:49:50.261Z,20.46
2022-08-22T20:53:09.904Z,20.40
2022-08-22T21:00:15.573Z,20.37
2022-08-22T21:03:27.240Z,20.38
2022-08-22T21:06:19.267Z,20.37
2022-08-22T21:09:36.754Z,20.38
2022-08-22T21:12:25.578Z,20.37
2022-08-22T21:15:12.595Z,20.34
2022-08-22T21:17:57.964Z,20.28
2022-08-22T21:20:50.672Z,20.23
2022-08-22T21:23:45.817Z,20.16
2022-08-22T21:26:48.785Z,20.14
2022-08-22T21:29:54.451Z,20.06
2022-08-22T21:36:22.393Z,19.98
2022-08-22T21:39:29.252Z,19.94
2022-08-22T21:42:35.918Z,19.94
2022-08-22T21:45:45.093Z,19.93
2022-08-22T21:48:42.032Z,19.94
2022-08-22T21:51:36.944Z,19.86
2022-08-22T21:54:36.819Z,19.86
2022-08-22T21:57:34.778Z,19.85
2022-08-22T22:01:05.432Z,19.85
2022-08-22T22:03:58.504Z,19.83
2022-08-22T22:06:44.162Z,19.85
2022-08-22T22:09:30.260Z,19.80
2022-08-22T22:12:15.682Z,19.80
2022-08-22T22:15:03.044Z,19.82
2022-08-22T22:17:48.566Z,19.86
2022-08-22T22:20:34.149Z,19.91
2022-08-22T22:23:20.627Z,20.20
2022-08-22T22:26:06.603Z,20.46
2022-08-22T22:28:52.922Z,20.49
2022-08-22T22:31:38.431Z,20.51
2022-08-22T22:34:23.844Z,20.60
2022-08-22T22:37:11.827Z,20.30
2022-08-22T22:39:57.323Z,19.97
2022-08-22T22:42:42.911Z,19.99
2022-08-22T22:45:28.410Z,19.88
2022-08-22T22:48:22.275Z,19.90
2022-08-22T22:51:12.191Z,19.90
2022-08-22T22:53:57.379Z,19.91
2022-08-22T22:56:42.670Z,19.77
2022-08-22T22:59:34.164Z,19.92
2022-08-22T23:02:22.526Z,19.73
2022-08-22T23:05:10.123Z,19.76
2022-08-22T23:07:56.617Z,19.76
2022-08-22T23:10:44.915Z,19.91
2022-08-22T23:13:30.022Z,19.66
2022-08-22T23:16:26.909Z,19.60
2022-08-22T23:19:14.430Z,19.45
2022-08-22T23:22:00.999Z,19.35
2022-08-22T23:24:49.627Z,19.20
2022-08-22T23:27:35.488Z,19.32
2022-08-22T23:30:21.739Z,19.38
2022-08-22T23:33:06.927Z,19.38
2022-08-22T23:35:54.116Z,19.36
2022-08-22T23:38:44.934Z,19.32
2022-08-22T23:41:30.289Z,19.31
2022-08-22T23:44:18.384Z,19.30
2022-08-22T23:47:06.150Z,19.26
2022-08-22T23:49:51.551Z,19.23
2022-08-22T23:52:37.012Z,19.25
2022-08-22T23:55:22.322Z,19.26
2022-08-22T23:58:07.944Z,19.27
